sensor_id;sensor_type;location;lat;lon;timestamp;temperature;humidity
14620;DHT22;32125;48.518;9.050;2022-08-03T00:01:02;20.20;99.90
14620;DHT22;32125;48.518;9.050;2022-08-03T00:03:28;20.10;99.90
14620;DHT22;32125;48.518;9.050;2022-08-03T00:05:53;20.10;99.90
14620;DHT22;32125;48.518;9.050;2022-08-03T00:08:19;20.10;99.90
14620;DHT22;32125;48.518;9.050;2022-08-03T00:10:45;20.10;99.90
14620;DHT22;32125;48.518;9.050;2022-08-03T00:13:10;20.10;99.90
14620;DHT22;32125;48.518;9.050;2022-08-03T00:15:41;20.00;99.90
14620;DHT22;32125;48.518;9.050;2022-08-03T00:18:08;20.00;99.90
14620;DHT22;32125;48.518;9.050;2022-08-03T00:20:34;20.00;99.90
14620;DHT22;32125;48.518;9.050;2022-08-03T00:22:59;19.90;99.90
14620;DHT22;32125;48.518;9.050;2022-08-03T00:27:51;19.90;99.90
14620;DHT22;32125;48.518;9.050;2022-08-03T00:30:17;19.90;99.90
14620;DHT22;32125;48.518;9.050;2022-08-03T00:32:47;19.80;99.90
14620;DHT22;32125;48.518;9.050;2022-08-03T00:35:18;19.80;99.90
14620;DHT22;32125;48.518;9.050;2022-08-03T00:37:43;19.80;99.90
14620;DHT22;32125;48.518;9.050;2022-08-03T00:40:11;19.70;99.90
14620;DHT22;32125;48.518;9.050;2022-08-03T00:42:49;19.70;99.90
14620;DHT22;32125;48.518;9.050;2022-08-03T00:45:18;19.70;99.90
14620;DHT22;32125;48.518;9.050;2022-08-03T00:47:44;19.60;99.90
14620;DHT22;32125;48.518;9.050;2022-08-03T00:50:10;19.60;99.90
14620;DHT22;32125;48.518;9.050;2022-08-03T00:52:36;19.60;99.90
14620;DHT22;32125;48.518;9.050;2022-08-03T00:55:03;19.60;99.90
14620;DHT22;32125;48.518;9.050;2022-08-03T00:57:31;19.60;99.90
14620;DHT22;32125;48.518;9.050;2022-08-03T01:02:28;19.50;99.90
14620;DHT22;32125;48.518;9.050;2022-08-03T01:04:54;19.50;99.90
14620;DHT22;32125;48.518;9.050;2022-08-03T01:13:33;19.30;99.90
14620;DHT22;32125;48.518;9.050;2022-08-03T01:16:36;19.30;99.90
14620;DHT22;32125;48.518;9.050;2022-08-03T01:19:12;19.30;99.90
14620;DHT22;32125;48.518;9.050;2022-08-03T01:32:53;19.10;99.90
14620;DHT22;32125;48.518;9.050;2022-08-03T01:35:32;19.10;99.90
14620;DHT22;32125;48.518;9.050;2022-08-03T01:38:22;19.10;99.90
14620;DHT22;32125;48.518;9.050;2022-08-03T01:40:49;19.10;99.90
14620;DHT22;32125;48.518;9.050;2022-08-03T01:43:18;19.10;99.90
14620;DHT22;32125;48.518;9.050;2022-08-03T01:45:48;19.10;99.90
14620;DHT22;32125;48.518;9.050;2022-08-03T01:48:16;19.00;99.90
14620;DHT22;32125;48.518;9.050;2022-08-03T01:50:44;19.00;99.90
14620;DHT22;32125;48.518;9.050;2022-08-03T01:53:13;19.00;99.90
14620;DHT22;32125;48.518;9.050;2022-08-03T01:55:43;19.00;99.90
14620;DHT22;32125;48.518;9.050;2022-08-03T01:58:12;18.90;99.90
14620;DHT22;32125;48.518;9.050;2022-08-03T02:00:39;18.90;99.90
14620;DHT22;32125;48.518;9.050;2022-08-03T02:03:06;18.90;99.90
14620;DHT22;32125;48.518;9.050;2022-08-03T02:05:33;18.90;99.90
14620;DHT22;32125;48.518;9.050;2022-08-03T02:08:01;18.90;99.90
14620;DHT22;32125;48.518;9.050;2022-08-03T02:10:29;18.90;99.90
14620;DHT22;32125;48.518;9.050;2022-08-03T02:12:59;18.80;99.90
14620;DHT22;32125;48.518;9.050;2022-08-03T02:15:26;18.80;99.90
14620;DHT22;32125;48.518;9.050;2022-08-03T02:17:53;18.80;99.90
14620;DHT22;32125;48.518;9.050;2022-08-03T02:20:20;18.80;99.90
14620;DHT22;32125;48.518;9.050;2022-08-03T02:22:46;18.70;99.90
14620;DHT22;32125;48.518;9.050;2022-08-03T02:25:14;18.70;99.90
14620;DHT22;32125;48.518;9.050;2022-08-03T02:27:50;18.70;99.90
14620;DHT22;32125;48.518;9.050;2022-08-03T02:30:18;18.70;99.90
14620;DHT22;32125;48.518;9.050;2022-08-03T02:35:16;18.70;99.90
14620;DHT22;32125;48.518;9.050;2022-08-03T02:40:14;18.60;99.90
14620;DHT22;32125;48.518;9.050;2022-08-03T02:42:43;18.60;99.90
14620;DHT22;32125;48.518;9.050;2022-08-03T02:45:12;18.60;99.90
14620;DHT22;32125;48.518;9.050;2022-08-03T02:47:41;18.60;99.90
14620;DHT22;32125;48.518;9.050;2022-08-03T02:50:13;18.60;99.90
14620;DHT22;32125;48.518;9.050;2022-08-03T02:52:41;18.50;99.90
14620;DHT22;32125;48.518;9.050;2022-08-03T02:55:10;18.50;99.90
14620;DHT22;32125;48.518;9.050;2022-08-03T02:57:36;18.50;99.90
14620;DHT22;32125;48.518;9.050;2022-08-03T03:02:33;18.40;99.90
14620;DHT22;32125;48.518;9.050;2022-08-03T03:05:03;18.40;99.90
14620;DHT22;32125;48.518;9.050;2022-08-03T03:07:32;18.40;99.90
14620;DHT22;32125;48.518;9.050;2022-08-03T03:10:02;18.30;99.90
14620;DHT22;32125;48.518;9.050;2022-08-03T03:12:30;18.30;99.90
14620;DHT22;32125;48.518;9.050;2022-08-03T03:14:57;18.30;99.90
14620;DHT22;32125;48.518;9.050;2022-08-03T03:17:23;18.30;99.90
14620;DHT22;32125;48.518;9.050;2022-08-03T03:19:50;18.20;99.90
14620;DHT22;32125;48.518;9.050;2022-08-03T03:22:17;18.20;99.90
14620;DHT22;32125;48.518;9.050;2022-08-03T03:24:43;18.20;99.90
14620;DHT22;32125;48.518;9.050;2022-08-03T03:29:36;18.10;99.90
14620;DHT22;32125;48.518;9.050;2022-08-03T03:32:05;18.10;99.90
14620;DHT22;32125;48.518;9.050;2022-08-03T03:34:31;18.10;99.90
14620;DHT22;32125;48.518;9.050;2022-08-03T03:37:00;18.10;99.90
14620;DHT22;32125;48.518;9.050;2022-08-03T03:41:52;18.00;99.90
14620;DHT22;32125;48.518;9.050;2022-08-03T03:44:18;18.00;99.90
14620;DHT22;32125;48.518;9.050;2022-08-03T03:46:43;18.10;99.90
14620;DHT22;32125;48.518;9.050;2022-08-03T03:49:09;18.00;99.90
14620;DHT22;32125;48.518;9.050;2022-08-03T03:54:02;18.00;99.90
14620;DHT22;32125;48.518;9.050;2022-08-03T03:56:30;17.90;99.90
14620;DHT22;32125;48.518;9.050;2022-08-03T03:58:55;17.90;99.90
14620;DHT22;32125;48.518;9.050;2022-08-03T04:01:21;17.90;99.90
14620;DHT22;32125;48.518;9.050;2022-08-03T04:03:49;17.90;99.90
14620;DHT22;32125;48.518;9.050;2022-08-03T04:06:15;17.90;99.90
14620;DHT22;32125;48.518;9.050;2022-08-03T04:09:00;17.90;99.90
14620;DHT22;32125;48.518;9.050;2022-08-03T04:11:52;17.80;99.90
14620;DHT22;32125;48.518;9.050;2022-08-03T04:14:31;17.80;99.90
14620;DHT22;32125;48.518;9.050;2022-08-03T04:17:03;17.80;99.90
14620;DHT22;32125;48.518;9.050;2022-08-03T04:19:35;17.80;99.90
14620;DHT22;32125;48.518;9.050;2022-08-03T04:22:05;17.70;99.90
14620;DHT22;32125;48.518;9.050;2022-08-03T04:25:21;17.70;99.90
14620;DHT22;32125;48.518;9.050;2022-08-03T04:27:35;17.70;99.90
14620;DHT22;32125;48.518;9.050;2022-08-03T04:30:05;17.70;99.90
14620;DHT22;32125;48.518;9.050;2022-08-03T04:39:57;17.70;99.90
14620;DHT22;32125;48.518;9.050;2022-08-03T04:42:25;17.80;99.90
14620;DHT22;32125;48.518;9.050;2022-08-03T04:47:17;17.70;99.90
14620;DHT22;32125;48.518;9.050;2022-08-03T04:49:44;17.70;99.90
14620;DHT22;32125;48.518;9.050;2022-08-03T04:52:10;17.70;99.90
14620;DHT22;32125;48.518;9.050;2022-08-03T04:54:42;17.80;99.90
14620;DHT22;32125;48.518;9.050;2022-08-03T04:57:09;17.80;99.90
14620;DHT22;32125;48.518;9.050;2022-08-03T04:59:38;17.80;99.90
14620;DHT22;32125;48.518;9.050;2022-08-03T05:02:06;17.80;99.90
14620;DHT22;32125;48.518;9.050;2022-08-03T05:04:31;17.80;99.90
14620;DHT22;32125;48.518;9.050;2022-08-03T05:06:57;17.90;99.90
14620;DHT22;32125;48.518;9.050;2022-08-03T05:09:22;17.90;99.90
14620;DHT22;32125;48.518;9.050;2022-08-03T05:11:48;17.80;99.90
14620;DHT22;32125;48.518;9.050;2022-08-03T05:14:16;17.90;99.90
14620;DHT22;32125;48.518;9.050;2022-08-03T05:19:10;17.90;99.90
14620;DHT22;32125;48.518;9.050;2022-08-03T05:21:36;18.00;99.90
14620;DHT22;32125;48.518;9.050;2022-08-03T05:24:04;17.90;99.90
14620;DHT22;32125;48.518;9.050;2022-08-03T05:26:29;17.90;99.90
14620;DHT22;32125;48.518;9.050;2022-08-03T05:28:57;17.90;99.90
14620;DHT22;32125;48.518;9.050;2022-08-03T05:33:49;18.00;99.90
14620;DHT22;32125;48.518;9.050;2022-08-03T05:36:15;18.00;99.90
14620;DHT22;32125;48.518;9.050;2022-08-03T05:46:03;18.20;99.90
14620;DHT22;32125;48.518;9.050;2022-08-03T05:48:31;18.20;99.90
14620;DHT22;32125;48.518;9.050;2022-08-03T05:50:57;18.20;99.90
14620;DHT22;32125;48.518;9.050;2022-08-03T05:53:25;18.30;99.90
14620;DHT22;32125;48.518;9.050;2022-08-03T05:55:53;18.30;99.90
14620;DHT22;32125;48.518;9.050;2022-08-03T05:58:19;18.40;99.90
14620;DHT22;32125;48.518;9.050;2022-08-03T06:00:44;18.40;99.90
14620;DHT22;32125;48.518;9.050;2022-08-03T06:03:10;18.50;99.90
14620;DHT22;32125;48.518;9.050;2022-08-03T06:05:35;18.50;99.90
14620;DHT22;32125;48.518;9.050;2022-08-03T06:08:03;18.50;99.90
14620;DHT22;32125;48.518;9.050;2022-08-03T06:10:32;18.60;99.90
14620;DHT22;32125;48.518;9.050;2022-08-03T06:13:02;18.60;99.90
14620;DHT22;32125;48.518;9.050;2022-08-03T06:15:28;18.80;99.90
14620;DHT22;32125;48.518;9.050;2022-08-03T06:17:55;18.90;99.90
14620;DHT22;32125;48.518;9.050;2022-08-03T06:20:22;19.00;99.90
14620;DHT22;32125;48.518;9.050;2022-08-03T06:22:50;19.10;99.90
14620;DHT22;32125;48.518;9.050;2022-08-03T06:25:18;19.20;99.90
14620;DHT22;32125;48.518;9.050;2022-08-03T06:27:44;19.30;99.90
14620;DHT22;32125;48.518;9.050;2022-08-03T06:32:38;19.60;99.90
14620;DHT22;32125;48.518;9.050;2022-08-03T06:35:09;19.90;99.90
14620;DHT22;32125;48.518;9.050;2022-08-03T06:37:48;20.20;99.90
14620;DHT22;32125;48.518;9.050;2022-08-03T06:40:16;20.50;99.90
14620;DHT22;32125;48.518;9.050;2022-08-03T06:42:45;20.90;99.90
14620;DHT22;32125;48.518;9.050;2022-08-03T06:45:13;21.30;99.90
14620;DHT22;32125;48.518;9.050;2022-08-03T06:47:39;21.60;99.90
14620;DHT22;32125;48.518;9.050;2022-08-03T06:50:05;21.90;99.90
14620;DHT22;32125;48.518;9.050;2022-08-03T06:52:34;22.30;99.90
14620;DHT22;32125;48.518;9.050;2022-08-03T06:55:02;22.70;99.90
14620;DHT22;32125;48.518;9.050;2022-08-03T06:57:28;23.00;99.90
14620;DHT22;32125;48.518;9.050;2022-08-03T06:59:55;23.40;99.90
14620;DHT22;32125;48.518;9.050;2022-08-03T07:02:27;23.80;99.90
14620;DHT22;32125;48.518;9.050;2022-08-03T07:04:53;24.10;99.90
14620;DHT22;32125;48.518;9.050;2022-08-03T07:07:23;24.40;99.90
14620;DHT22;32125;48.518;9.050;2022-08-03T07:09:51;24.60;99.90
14620;DHT22;32125;48.518;9.050;2022-08-03T07:12:19;24.90;99.90
14620;DHT22;32125;48.518;9.050;2022-08-03T07:17:11;25.20;99.90
14620;DHT22;32125;48.518;9.050;2022-08-03T07:19:36;25.40;99.90
14620;DHT22;32125;48.518;9.050;2022-08-03T07:22:02;25.60;99.90
14620;DHT22;32125;48.518;9.050;2022-08-03T07:24:28;25.90;99.90
14620;DHT22;32125;48.518;9.050;2022-08-03T07:26:54;26.20;99.90
14620;DHT22;32125;48.518;9.050;2022-08-03T07:29:19;26.40;99.90
14620;DHT22;32125;48.518;9.050;2022-08-03T07:31:45;26.70;99.90
14620;DHT22;32125;48.518;9.050;2022-08-03T07:34:11;27.00;99.90
14620;DHT22;32125;48.518;9.050;2022-08-03T07:36:39;27.30;99.90
14620;DHT22;32125;48.518;9.050;2022-08-03T07:39:07;27.40;99.90
14620;DHT22;32125;48.518;9.050;2022-08-03T07:41:37;27.50;99.90
14620;DHT22;32125;48.518;9.050;2022-08-03T07:44:08;27.70;99.90
14620;DHT22;32125;48.518;9.050;2022-08-03T07:46:33;28.00;99.90
14620;DHT22;32125;48.518;9.050;2022-08-03T07:48:59;28.20;99.90
14620;DHT22;32125;48.518;9.050;2022-08-03T07:53:53;28.40;99.90
14620;DHT22;32125;48.518;9.050;2022-08-03T07:56:22;28.60;99.90
14620;DHT22;32125;48.518;9.050;2022-08-03T07:58:49;28.70;99.90
14620;DHT22;32125;48.518;9.050;2022-08-03T08:01:15;28.90;99.90
14620;DHT22;32125;48.518;9.050;2022-08-03T08:03:41;29.00;99.90
14620;DHT22;32125;48.518;9.050;2022-08-03T08:06:07;29.20;99.90
14620;DHT22;32125;48.518;9.050;2022-08-03T08:11:04;29.50;99.90
14620;DHT22;32125;48.518;9.050;2022-08-03T08:13:34;29.60;99.90
14620;DHT22;32125;48.518;9.050;2022-08-03T08:16:03;29.80;99.90
14620;DHT22;32125;48.518;9.050;2022-08-03T08:18:29;29.90;99.90
14620;DHT22;32125;48.518;9.050;2022-08-03T08:20:55;30.10;99.90
14620;DHT22;32125;48.518;9.050;2022-08-03T08:25:48;30.30;99.90
14620;DHT22;32125;48.518;9.050;2022-08-03T08:28:17;30.40;99.90
14620;DHT22;32125;48.518;9.050;2022-08-03T08:30:46;30.40;99.90
14620;DHT22;32125;48.518;9.050;2022-08-03T08:33:14;30.60;99.90
14620;DHT22;32125;48.518;9.050;2022-08-03T08:35:40;30.70;99.90
14620;DHT22;32125;48.518;9.050;2022-08-03T08:40:32;31.00;99.40
14620;DHT22;32125;48.518;9.050;2022-08-03T08:43:01;31.10;98.90
14620;DHT22;32125;48.518;9.050;2022-08-03T08:45:29;31.30;96.90
14620;DHT22;32125;48.518;9.050;2022-08-03T08:47:56;31.40;96.60
14620;DHT22;32125;48.518;9.050;2022-08-03T08:50:23;31.60;96.10
14620;DHT22;32125;48.518;9.050;2022-08-03T08:52:49;31.80;95.50
14620;DHT22;32125;48.518;9.050;2022-08-03T09:00:14;32.20;92.80
14620;DHT22;32125;48.518;9.050;2022-08-03T09:05:16;32.40;92.30
14620;DHT22;32125;48.518;9.050;2022-08-03T09:07:48;32.40;92.30
14620;DHT22;32125;48.518;9.050;2022-08-03T09:10:16;32.50;91.50
14620;DHT22;32125;48.518;9.050;2022-08-03T09:12:49;32.60;91.00
14620;DHT22;32125;48.518;9.050;2022-08-03T09:17:48;32.80;90.00
14620;DHT22;32125;48.518;9.050;2022-08-03T09:20:22;32.90;91.10
14620;DHT22;32125;48.518;9.050;2022-08-03T09:22:55;33.00;90.80
14620;DHT22;32125;48.518;9.050;2022-08-03T09:38:20;33.30;86.80
14620;DHT22;32125;48.518;9.050;2022-08-03T09:43:17;33.40;85.40
14620;DHT22;32125;48.518;9.050;2022-08-03T09:53:14;33.70;81.90
14620;DHT22;32125;48.518;9.050;2022-08-03T09:58:15;33.80;81.20
14620;DHT22;32125;48.518;9.050;2022-08-03T10:00:59;33.70;80.40
14620;DHT22;32125;48.518;9.050;2022-08-03T10:08:21;33.70;79.40
14620;DHT22;32125;48.518;9.050;2022-08-03T10:10:51;33.70;79.50
14620;DHT22;32125;48.518;9.050;2022-08-03T10:13:23;33.80;81.00
14620;DHT22;32125;48.518;9.050;2022-08-03T10:15:51;34.00;80.00
14620;DHT22;32125;48.518;9.050;2022-08-03T10:18:17;34.00;79.50
14620;DHT22;32125;48.518;9.050;2022-08-03T10:20:50;34.10;76.10
14620;DHT22;32125;48.518;9.050;2022-08-03T10:23:16;34.10;74.30
14620;DHT22;32125;48.518;9.050;2022-08-03T10:28:12;34.00;73.50
14620;DHT22;32125;48.518;9.050;2022-08-03T10:30:43;33.90;72.10
14620;DHT22;32125;48.518;9.050;2022-08-03T10:33:19;34.00;73.00
14620;DHT22;32125;48.518;9.050;2022-08-03T10:38:18;34.30;72.80
14620;DHT22;32125;48.518;9.050;2022-08-03T10:40:49;34.40;70.60
14620;DHT22;32125;48.518;9.050;2022-08-03T10:43:23;34.40;71.50
14620;DHT22;32125;48.518;9.050;2022-08-03T10:45:55;34.40;71.30
14620;DHT22;32125;48.518;9.050;2022-08-03T10:48:21;34.50;70.70
14620;DHT22;32125;48.518;9.050;2022-08-03T10:50:48;34.50;71.30
14620;DHT22;32125;48.518;9.050;2022-08-03T10:53:14;34.60;71.60
14620;DHT22;32125;48.518;9.050;2022-08-03T10:55:46;34.60;70.70
14620;DHT22;32125;48.518;9.050;2022-08-03T11:01:07;34.80;67.50
14620;DHT22;32125;48.518;9.050;2022-08-03T11:06:21;34.90;67.30
14620;DHT22;32125;48.518;9.050;2022-08-03T11:08:50;35.00;66.00
14620;DHT22;32125;48.518;9.050;2022-08-03T11:11:39;35.10;65.70
14620;DHT22;32125;48.518;9.050;2022-08-03T11:14:18;35.10;66.10
14620;DHT22;32125;48.518;9.050;2022-08-03T11:17:05;35.20;66.50
14620;DHT22;32125;48.518;9.050;2022-08-03T11:19:44;35.00;68.10
14620;DHT22;32125;48.518;9.050;2022-08-03T11:22:14;35.00;66.90
14620;DHT22;32125;48.518;9.050;2022-08-03T11:30:15;35.00;67.10
14620;DHT22;32125;48.518;9.050;2022-08-03T11:46:10;34.70;66.80
14620;DHT22;32125;48.518;9.050;2022-08-03T11:48:43;34.90;67.90
14620;DHT22;32125;48.518;9.050;2022-08-03T11:51:29;34.90;66.10
14620;DHT22;32125;48.518;9.050;2022-08-03T11:56:23;34.90;66.10
14620;DHT22;32125;48.518;9.050;2022-08-03T11:58:51;35.00;67.30
14620;DHT22;32125;48.518;9.050;2022-08-03T12:01:21;35.00;66.80
14620;DHT22;32125;48.518;9.050;2022-08-03T12:03:47;35.10;65.90
14620;DHT22;32125;48.518;9.050;2022-08-03T12:06:15;34.90;65.70
14620;DHT22;32125;48.518;9.050;2022-08-03T12:08:43;35.00;65.60
14620;DHT22;32125;48.518;9.050;2022-08-03T12:11:12;34.90;67.80
14620;DHT22;32125;48.518;9.050;2022-08-03T12:13:46;34.60;66.10
14620;DHT22;32125;48.518;9.050;2022-08-03T12:16:22;34.60;67.80
14620;DHT22;32125;48.518;9.050;2022-08-03T12:19:01;34.40;67.00
14620;DHT22;32125;48.518;9.050;2022-08-03T12:21:27;34.30;67.80
14620;DHT22;32125;48.518;9.050;2022-08-03T12:24:03;34.10;65.30
14620;DHT22;32125;48.518;9.050;2022-08-03T12:26:41;33.80;66.60
14620;DHT22;32125;48.518;9.050;2022-08-03T12:31:34;33.80;69.00
14620;DHT22;32125;48.518;9.050;2022-08-03T12:34:02;34.00;68.50
14620;DHT22;32125;48.518;9.050;2022-08-03T12:36:31;34.10;68.60
14620;DHT22;32125;48.518;9.050;2022-08-03T12:39:07;34.40;67.40
14620;DHT22;32125;48.518;9.050;2022-08-03T12:41:38;34.50;64.10
14620;DHT22;32125;48.518;9.050;2022-08-03T12:44:07;34.60;65.50
14620;DHT22;32125;48.518;9.050;2022-08-03T12:46:37;34.80;62.80
14620;DHT22;32125;48.518;9.050;2022-08-03T12:51:56;34.80;64.60
14620;DHT22;32125;48.518;9.050;2022-08-03T12:54:30;34.70;65.00
14620;DHT22;32125;48.518;9.050;2022-08-03T13:02:04;34.50;64.60
14620;DHT22;32125;48.518;9.050;2022-08-03T13:04:32;34.50;64.10
14620;DHT22;32125;48.518;9.050;2022-08-03T13:07:07;34.40;64.90
14620;DHT22;32125;48.518;9.050;2022-08-03T13:09:49;34.30;63.20
14620;DHT22;32125;48.518;9.050;2022-08-03T13:12:26;34.00;64.60
14620;DHT22;32125;48.518;9.050;2022-08-03T13:14:57;33.80;67.10
14620;DHT22;32125;48.518;9.050;2022-08-03T13:19:51;33.40;69.00
14620;DHT22;32125;48.518;9.050;2022-08-03T13:22:25;33.20;67.50
14620;DHT22;32125;48.518;9.050;2022-08-03T13:24:56;33.20;68.20
14620;DHT22;32125;48.518;9.050;2022-08-03T13:27:23;33.00;68.90
14620;DHT22;32125;48.518;9.050;2022-08-03T13:29:51;32.90;67.50
14620;DHT22;32125;48.518;9.050;2022-08-03T13:34:48;32.80;70.20
14620;DHT22;32125;48.518;9.050;2022-08-03T13:37:14;32.80;68.90
14620;DHT22;32125;48.518;9.050;2022-08-03T13:39:41;32.80;66.50
14620;DHT22;32125;48.518;9.050;2022-08-03T13:42:07;32.90;67.20
14620;DHT22;32125;48.518;9.050;2022-08-03T13:47:04;32.90;65.50
14620;DHT22;32125;48.518;9.050;2022-08-03T13:49:32;32.80;65.70
14620;DHT22;32125;48.518;9.050;2022-08-03T13:51:58;32.80;67.10
14620;DHT22;32125;48.518;9.050;2022-08-03T13:54:26;32.80;66.10
14620;DHT22;32125;48.518;9.050;2022-08-03T13:56:52;32.80;67.60
14620;DHT22;32125;48.518;9.050;2022-08-03T14:01:47;32.80;66.20
14620;DHT22;32125;48.518;9.050;2022-08-03T14:06:41;32.80;67.00
14620;DHT22;32125;48.518;9.050;2022-08-03T14:09:12;32.70;67.00
14620;DHT22;32125;48.518;9.050;2022-08-03T14:14:11;32.50;68.70
14620;DHT22;32125;48.518;9.050;2022-08-03T14:16:39;32.50;67.40
14620;DHT22;32125;48.518;9.050;2022-08-03T14:19:05;32.40;68.60
14620;DHT22;32125;48.518;9.050;2022-08-03T14:21:32;32.30;70.50
14620;DHT22;32125;48.518;9.050;2022-08-03T14:26:25;32.20;69.10
14620;DHT22;32125;48.518;9.050;2022-08-03T14:28:53;32.20;70.00
14620;DHT22;32125;48.518;9.050;2022-08-03T14:31:18;32.30;69.50
14620;DHT22;32125;48.518;9.050;2022-08-03T14:33:46;32.30;66.50
14620;DHT22;32125;48.518;9.050;2022-08-03T14:38:38;32.40;65.40
14620;DHT22;32125;48.518;9.050;2022-08-03T14:41:06;32.30;68.60
14620;DHT22;32125;48.518;9.050;2022-08-03T14:45:59;32.40;65.90
14620;DHT22;32125;48.518;9.050;2022-08-03T14:48:25;32.40;68.60
14620;DHT22;32125;48.518;9.050;2022-08-03T14:53:19;32.30;70.10
14620;DHT22;32125;48.518;9.050;2022-08-03T14:55:46;32.30;69.60
14620;DHT22;32125;48.518;9.050;2022-08-03T14:58:14;32.30;69.40
14620;DHT22;32125;48.518;9.050;2022-08-03T15:00:40;32.30;70.50
14620;DHT22;32125;48.518;9.050;2022-08-03T15:03:05;32.20;71.40
14620;DHT22;32125;48.518;9.050;2022-08-03T15:07:57;32.30;71.00
14620;DHT22;32125;48.518;9.050;2022-08-03T15:10:25;32.10;71.60
14620;DHT22;32125;48.518;9.050;2022-08-03T15:12:53;31.90;67.80
14620;DHT22;32125;48.518;9.050;2022-08-03T15:17:45;31.80;70.80
14620;DHT22;32125;48.518;9.050;2022-08-03T15:22:42;31.70;70.10
14620;DHT22;32125;48.518;9.050;2022-08-03T15:25:10;31.60;70.50
14620;DHT22;32125;48.518;9.050;2022-08-03T15:30:03;31.60;70.10
14620;DHT22;32125;48.518;9.050;2022-08-03T15:32:33;31.70;71.70
14620;DHT22;32125;48.518;9.050;2022-08-03T15:34:59;31.90;68.70
14620;DHT22;32125;48.518;9.050;2022-08-03T15:37:27;31.90;68.20
14620;DHT22;32125;48.518;9.050;2022-08-03T15:39:53;31.90;71.40
14620;DHT22;32125;48.518;9.050;2022-08-03T15:42:22;31.90;71.70
14620;DHT22;32125;48.518;9.050;2022-08-03T15:44:50;31.90;71.70
14620;DHT22;32125;48.518;9.050;2022-08-03T15:47:18;31.90;70.80
14620;DHT22;32125;48.518;9.050;2022-08-03T15:49:43;31.90;71.30
14620;DHT22;32125;48.518;9.050;2022-08-03T15:52:09;31.90;69.50
14620;DHT22;32125;48.518;9.050;2022-08-03T15:54:34;31.90;70.70
14620;DHT22;32125;48.518;9.050;2022-08-03T15:57:00;32.00;70.90
14620;DHT22;32125;48.518;9.050;2022-08-03T16:04:22;31.90;72.40
14620;DHT22;32125;48.518;9.050;2022-08-03T16:06:52;31.90;70.90
14620;DHT22;32125;48.518;9.050;2022-08-03T16:09:20;31.80;72.10
14620;DHT22;32125;48.518;9.050;2022-08-03T16:14:12;31.80;73.10
14620;DHT22;32125;48.518;9.050;2022-08-03T16:19:06;31.80;72.20
14620;DHT22;32125;48.518;9.050;2022-08-03T16:21:32;31.80;73.20
14620;DHT22;32125;48.518;9.050;2022-08-03T16:24:06;31.70;72.20
14620;DHT22;32125;48.518;9.050;2022-08-03T16:26:32;31.70;73.10
14620;DHT22;32125;48.518;9.050;2022-08-03T16:31:26;31.60;73.60
14620;DHT22;32125;48.518;9.050;2022-08-03T16:33:55;31.60;73.80
14620;DHT22;32125;48.518;9.050;2022-08-03T16:36:21;31.50;74.80
14620;DHT22;32125;48.518;9.050;2022-08-03T16:38:47;31.40;75.10
14620;DHT22;32125;48.518;9.050;2022-08-03T16:41:12;31.40;75.50
14620;DHT22;32125;48.518;9.050;2022-08-03T16:43:40;31.40;75.90
14620;DHT22;32125;48.518;9.050;2022-08-03T16:46:06;31.30;72.80
14620;DHT22;32125;48.518;9.050;2022-08-03T16:53:28;31.30;74.90
14620;DHT22;32125;48.518;9.050;2022-08-03T16:55:54;31.10;76.20
14620;DHT22;32125;48.518;9.050;2022-08-03T16:58:21;31.10;74.70
14620;DHT22;32125;48.518;9.050;2022-08-03T17:00:46;31.10;77.30
14620;DHT22;32125;48.518;9.050;2022-08-03T17:10:35;30.80;78.60
14620;DHT22;32125;48.518;9.050;2022-08-03T17:13:00;30.70;78.40
14620;DHT22;32125;48.518;9.050;2022-08-03T17:15:26;30.70;78.70
14620;DHT22;32125;48.518;9.050;2022-08-03T17:18:03;30.60;78.70
14620;DHT22;32125;48.518;9.050;2022-08-03T17:23:02;30.40;78.60
14620;DHT22;32125;48.518;9.050;2022-08-03T17:27:57;30.20;79.60
14620;DHT22;32125;48.518;9.050;2022-08-03T17:30:23;30.20;80.00
14620;DHT22;32125;48.518;9.050;2022-08-03T17:33:09;30.10;79.20
14620;DHT22;32125;48.518;9.050;2022-08-03T17:35:36;30.00;80.70
14620;DHT22;32125;48.518;9.050;2022-08-03T17:38:02;30.00;80.50
14620;DHT22;32125;48.518;9.050;2022-08-03T17:40:30;30.00;80.50
14620;DHT22;32125;48.518;9.050;2022-08-03T17:42:59;30.00;80.10
14620;DHT22;32125;48.518;9.050;2022-08-03T17:45:25;29.90;81.60
14620;DHT22;32125;48.518;9.050;2022-08-03T17:47:50;29.80;79.70
14620;DHT22;32125;48.518;9.050;2022-08-03T17:50:20;29.70;81.80
14620;DHT22;32125;48.518;9.050;2022-08-03T17:52:49;29.60;81.90
14620;DHT22;32125;48.518;9.050;2022-08-03T17:55:20;29.50;82.20
14620;DHT22;32125;48.518;9.050;2022-08-03T18:05:50;29.30;84.40
14620;DHT22;32125;48.518;9.050;2022-08-03T18:13:30;29.00;85.50
14620;DHT22;32125;48.518;9.050;2022-08-03T18:16:01;29.00;85.90
14620;DHT22;32125;48.518;9.050;2022-08-03T18:26:06;28.70;87.50
14620;DHT22;32125;48.518;9.050;2022-08-03T18:28:34;28.60;87.60
14620;DHT22;32125;48.518;9.050;2022-08-03T18:31:02;28.50;87.80
14620;DHT22;32125;48.518;9.050;2022-08-03T18:33:29;28.50;88.70
14620;DHT22;32125;48.518;9.050;2022-08-03T18:35:59;28.40;89.10
14620;DHT22;32125;48.518;9.050;2022-08-03T18:38:25;28.30;89.40
14620;DHT22;32125;48.518;9.050;2022-08-03T18:40:52;28.20;89.90
14620;DHT22;32125;48.518;9.050;2022-08-03T18:43:20;28.20;89.90
14620;DHT22;32125;48.518;9.050;2022-08-03T18:48:34;28.10;90.30
14620;DHT22;32125;48.518;9.050;2022-08-03T18:56:17;28.00;90.50
14620;DHT22;32125;48.518;9.050;2022-08-03T19:01:39;27.90;90.70
14620;DHT22;32125;48.518;9.050;2022-08-03T19:04:14;27.80;91.00
14620;DHT22;32125;48.518;9.050;2022-08-03T19:11:50;27.70;91.20
14620;DHT22;32125;48.518;9.050;2022-08-03T19:16:49;27.60;90.90
14620;DHT22;32125;48.518;9.050;2022-08-03T19:19:21;27.50;91.60
14620;DHT22;32125;48.518;9.050;2022-08-03T19:21:50;27.40;91.90
14620;DHT22;32125;48.518;9.050;2022-08-03T19:26:52;27.30;91.70
14620;DHT22;32125;48.518;9.050;2022-08-03T19:36:42;27.10;92.40
14620;DHT22;32125;48.518;9.050;2022-08-03T19:39:08;27.30;92.70
14620;DHT22;32125;48.518;9.050;2022-08-03T19:41:37;27.10;92.50
14620;DHT22;32125;48.518;9.050;2022-08-03T19:44:07;27.00;92.30
14620;DHT22;32125;48.518;9.050;2022-08-03T19:46:42;27.00;93.10
14620;DHT22;32125;48.518;9.050;2022-08-03T19:49:14;27.00;92.60
14620;DHT22;32125;48.518;9.050;2022-08-03T19:51:40;26.90;92.50
14620;DHT22;32125;48.518;9.050;2022-08-03T19:54:11;26.80;92.90
14620;DHT22;32125;48.518;9.050;2022-08-03T19:56:46;26.80;93.40
14620;DHT22;32125;48.518;9.050;2022-08-03T19:59:13;26.80;93.20
14620;DHT22;32125;48.518;9.050;2022-08-03T20:01:40;26.70;93.30
14620;DHT22;32125;48.518;9.050;2022-08-03T20:06:35;26.70;93.30
14620;DHT22;32125;48.518;9.050;2022-08-03T20:11:27;26.60;93.80
14620;DHT22;32125;48.518;9.050;2022-08-03T20:13:54;26.60;94.20